sensor_id;sensor_type;location;lat;lon;timestamp;pressure;altitude;pressure_sealevel;temperature;humidity
69689;BME280;56932;38.402;-96.176;2022-07-29T00:00:15;97639.73;;;24.62;35.30
69689;BME280;56932;38.402;-96.176;2022-07-29T00:02:40;97641.99;;;24.97;35.52
69689;BME280;56932;38.402;-96.176;2022-07-29T00:05:06;97640.42;;;25.15;35.30
69689;BME280;56932;38.402;-96.176;2022-07-29T00:07:31;97645.20;;;24.62;36.03
69689;BME280;56932;38.402;-96.176;2022-07-29T00:09:56;97641.05;;;24.79;35.85
69689;BME280;56932;38.402;-96.176;2022-07-29T00:12:23;97639.31;;;25.19;35.31
69689;BME280;56932;38.402;-96.176;2022-07-29T00:14:47;97637.25;;;25.07;35.49
69689;BME280;56932;38.402;-96.176;2022-07-29T00:17:12;97645.39;;;25.16;34.70
69689;BME280;56932;38.402;-96.176;2022-07-29T00:19:38;97647.16;;;25.34;35.13
69689;BME280;56932;38.402;-96.176;2022-07-29T00:22:03;97643.71;;;24.89;35.21
69689;BME280;56932;38.402;-96.176;2022-07-29T00:24:29;97639.81;;;24.87;35.48
69689;BME280;56932;38.402;-96.176;2022-07-29T00:26:54;97638.93;;;25.15;35.44
69689;BME280;56932;38.402;-96.176;2022-07-29T00:29:20;97641.41;;;24.79;36.07
69689;BME280;56932;38.402;-96.176;2022-07-29T00:31:45;97642.44;;;25.04;35.73
69689;BME280;56932;38.402;-96.176;2022-07-29T00:34:10;97646.22;;;24.86;35.72
69689;BME280;56932;38.402;-96.176;2022-07-29T00:36:36;97652.18;;;24.90;35.35
69689;BME280;56932;38.402;-96.176;2022-07-29T00:39:01;97652.81;;;26.28;33.89
69689;BME280;56932;38.402;-96.176;2022-07-29T00:41:27;97656.40;;;24.55;35.29
69689;BME280;56932;38.402;-96.176;2022-07-29T00:43:52;97659.43;;;24.72;34.21
69689;BME280;56932;38.402;-96.176;2022-07-29T00:46:18;97663.65;;;23.73;34.08
69689;BME280;56932;38.402;-96.176;2022-07-29T00:48:43;97665.96;;;23.88;33.66
69689;BME280;56932;38.402;-96.176;2022-07-29T00:51:09;97667.08;;;23.70;32.70
69689;BME280;56932;38.402;-96.176;2022-07-29T00:53:34;97674.41;;;23.76;32.35
69689;BME280;56932;38.402;-96.176;2022-07-29T00:55:59;97676.61;;;23.40;32.49
69689;BME280;56932;38.402;-96.176;2022-07-29T00:58:27;97679.61;;;23.45;32.09
69689;BME280;56932;38.402;-96.176;2022-07-29T01:00:50;97682.48;;;23.12;32.81
69689;BME280;56932;38.402;-96.176;2022-07-29T01:03:16;97681.21;;;23.42;32.77
69689;BME280;56932;38.402;-96.176;2022-07-29T01:05:42;97680.31;;;23.43;32.13
69689;BME280;56932;38.402;-96.176;2022-07-29T01:08:07;97681.70;;;23.26;32.00
69689;BME280;56932;38.402;-96.176;2022-07-29T01:10:32;97686.81;;;22.47;32.37
69689;BME280;56932;38.402;-96.176;2022-07-29T01:12:59;97691.33;;;21.97;32.65
69689;BME280;56932;38.402;-96.176;2022-07-29T01:15:22;97695.53;;;22.63;31.19
69689;BME280;56932;38.402;-96.176;2022-07-29T01:17:54;97699.53;;;21.94;31.55
69689;BME280;56932;38.402;-96.176;2022-07-29T01:20:18;97701.08;;;22.43;31.36
69689;BME280;56932;38.402;-96.176;2022-07-29T01:22:56;97707.51;;;22.07;31.15
69689;BME280;56932;38.402;-96.176;2022-07-29T01:27:41;97717.11;;;22.18;30.75
69689;BME280;56932;38.402;-96.176;2022-07-29T01:29:57;97719.49;;;22.38;30.78
69689;BME280;56932;38.402;-96.176;2022-07-29T01:32:24;97720.72;;;22.37;30.72
69689;BME280;56932;38.402;-96.176;2022-07-29T01:34:50;97726.95;;;22.13;31.11
69689;BME280;56932;38.402;-96.176;2022-07-29T01:37:18;97728.82;;;21.89;30.64
69689;BME280;56932;38.402;-96.176;2022-07-29T01:39:38;97731.50;;;21.66;30.61
69689;BME280;56932;38.402;-96.176;2022-07-29T01:42:10;97732.05;;;21.63;30.74
69689;BME280;56932;38.402;-96.176;2022-07-29T01:44:31;97731.07;;;21.58;30.85
69689;BME280;56932;38.402;-96.176;2022-07-29T01:46:56;97731.88;;;21.24;31.13
69689;BME280;56932;38.402;-96.176;2022-07-29T01:49:21;97738.41;;;21.26;30.72
69689;BME280;56932;38.402;-96.176;2022-07-29T01:51:49;97739.96;;;21.53;30.23
69689;BME280;56932;38.402;-96.176;2022-07-29T01:54:14;97742.90;;;21.62;29.99
69689;BME280;56932;38.402;-96.176;2022-07-29T01:56:36;97747.64;;;21.71;29.71
69689;BME280;56932;38.402;-96.176;2022-07-29T01:59:01;97748.43;;;21.52;30.05
69689;BME280;56932;38.402;-96.176;2022-07-29T02:01:26;97745.49;;;21.23;30.21
69689;BME280;56932;38.402;-96.176;2022-07-29T02:03:52;97743.31;;;21.09;30.67
69689;BME280;56932;38.402;-96.176;2022-07-29T02:06:19;97739.68;;;21.16;30.32
69689;BME280;56932;38.402;-96.176;2022-07-29T02:08:42;97741.55;;;21.65;29.16
69689;BME280;56932;38.402;-96.176;2022-07-29T02:11:09;97741.28;;;21.31;29.85
69689;BME280;56932;38.402;-96.176;2022-07-29T02:13:35;97738.17;;;21.39;29.22
69689;BME280;56932;38.402;-96.176;2022-07-29T02:15:58;97743.36;;;20.82;30.34
69689;BME280;56932;38.402;-96.176;2022-07-29T02:18:25;97748.69;;;21.65;29.21
69689;BME280;56932;38.402;-96.176;2022-07-29T02:20:52;97753.61;;;20.67;30.38
69689;BME280;56932;38.402;-96.176;2022-07-29T02:23:18;97755.89;;;20.80;30.04
69689;BME280;56932;38.402;-96.176;2022-07-29T02:25:41;97756.31;;;20.78;30.12
69689;BME280;56932;38.402;-96.176;2022-07-29T02:28:07;97754.59;;;21.07;29.50
69689;BME280;56932;38.402;-96.176;2022-07-29T02:30:32;97756.90;;;20.45;30.16
69689;BME280;56932;38.402;-96.176;2022-07-29T02:32:57;97762.40;;;21.04;29.58
69689;BME280;56932;38.402;-96.176;2022-07-29T02:35:23;97764.69;;;20.70;29.78
69689;BME280;56932;38.402;-96.176;2022-07-29T02:37:48;97769.80;;;20.61;29.72
69689;BME280;56932;38.402;-96.176;2022-07-29T02:40:14;97771.63;;;21.04;29.17
69689;BME280;56932;38.402;-96.176;2022-07-29T02:42:39;97768.15;;;20.30;29.76
69689;BME280;56932;38.402;-96.176;2022-07-29T02:45:05;97766.08;;;20.45;29.52
69689;BME280;56932;38.402;-96.176;2022-07-29T02:47:33;97770.04;;;20.21;29.68
69689;BME280;56932;38.402;-96.176;2022-07-29T02:50:00;97776.87;;;20.30;29.83
69689;BME280;56932;38.402;-96.176;2022-07-29T02:52:26;97784.28;;;20.06;29.98
69689;BME280;56932;38.402;-96.176;2022-07-29T02:54:53;97787.65;;;20.19;29.49
69689;BME280;56932;38.402;-96.176;2022-07-29T02:57:18;97789.31;;;20.34;29.27
69689;BME280;56932;38.402;-96.176;2022-07-29T02:59:38;97788.11;;;20.14;29.34
69689;BME280;56932;38.402;-96.176;2022-07-29T03:02:03;97790.40;;;19.84;29.76
69689;BME280;56932;38.402;-96.176;2022-07-29T03:04:29;97793.55;;;20.72;29.03
69689;BME280;56932;38.402;-96.176;2022-07-29T03:06:54;97797.05;;;19.97;29.88
69689;BME280;56932;38.402;-96.176;2022-07-29T03:09:20;97798.59;;;19.98;30.07
69689;BME280;56932;38.402;-96.176;2022-07-29T03:11:45;97800.22;;;19.87;29.66
69689;BME280;56932;38.402;-96.176;2022-07-29T03:14:10;97801.22;;;19.61;29.81
69689;BME280;56932;38.402;-96.176;2022-07-29T03:16:36;97806.01;;;19.88;29.73
69689;BME280;56932;38.402;-96.176;2022-07-29T03:19:01;97808.60;;;20.15;29.12
69689;BME280;56932;38.402;-96.176;2022-07-29T03:21:26;97810.78;;;19.89;29.39
69689;BME280;56932;38.402;-96.176;2022-07-29T03:23:52;97808.00;;;20.03;29.70
69689;BME280;56932;38.402;-96.176;2022-07-29T03:26:17;97809.24;;;19.81;29.40
69689;BME280;56932;38.402;-96.176;2022-07-29T03:28:43;97806.06;;;20.50;28.63
69689;BME280;56932;38.402;-96.176;2022-07-29T03:31:08;97810.74;;;20.08;29.25
69689;BME280;56932;38.402;-96.176;2022-07-29T03:33:34;97819.71;;;20.33;29.28
69689;BME280;56932;38.402;-96.176;2022-07-29T03:35:59;97819.06;;;20.77;29.17
69689;BME280;56932;38.402;-96.176;2022-07-29T03:38:26;97818.82;;;20.31;29.36
69689;BME280;56932;38.402;-96.176;2022-07-29T03:40:55;97813.05;;;20.37;29.74
69689;BME280;56932;38.402;-96.176;2022-07-29T03:43:17;97815.63;;;20.72;29.39
69689;BME280;56932;38.402;-96.176;2022-07-29T03:45:42;97818.34;;;21.00;29.35
69689;BME280;56932;38.402;-96.176;2022-07-29T03:48:10;97820.52;;;21.22;29.60
69689;BME280;56932;38.402;-96.176;2022-07-29T03:50:34;97824.83;;;21.54;29.65
69689;BME280;56932;38.402;-96.176;2022-07-29T03:52:58;97825.36;;;21.54;29.53
69689;BME280;56932;38.402;-96.176;2022-07-29T03:55:24;97828.20;;;20.96;30.80
69689;BME280;56932;38.402;-96.176;2022-07-29T03:57:50;97830.30;;;21.89;29.78
69689;BME280;56932;38.402;-96.176;2022-07-29T04:00:15;97829.96;;;21.73;30.81
69689;BME280;56932;38.402;-96.176;2022-07-29T04:02:40;97827.60;;;21.62;30.96
69689;BME280;56932;38.402;-96.176;2022-07-29T04:05:07;97832.48;;;21.50;31.38
69689;BME280;56932;38.402;-96.176;2022-07-29T04:07:31;97832.84;;;21.65;31.20
69689;BME280;56932;38.402;-96.176;2022-07-29T04:09:56;97838.90;;;21.80;31.04
69689;BME280;56932;38.402;-96.176;2022-07-29T04:12:21;97842.47;;;22.07;31.46
69689;BME280;56932;38.402;-96.176;2022-07-29T04:14:47;97840.61;;;21.66;31.92
69689;BME280;56932;38.402;-96.176;2022-07-29T04:17:12;97840.38;;;22.00;31.75
69689;BME280;56932;38.402;-96.176;2022-07-29T04:19:38;97831.66;;;21.75;32.54
69689;BME280;56932;38.402;-96.176;2022-07-29T04:22:03;97833.78;;;21.83;32.38
69689;BME280;56932;38.402;-96.176;2022-07-29T04:24:29;97830.97;;;21.74;32.72
69689;BME280;56932;38.402;-96.176;2022-07-29T04:26:55;97831.05;;;21.85;32.76
69689;BME280;56932;38.402;-96.176;2022-07-29T04:29:20;97831.29;;;21.94;32.84
69689;BME280;56932;38.402;-96.176;2022-07-29T04:31:45;97828.36;;;21.87;33.39
69689;BME280;56932;38.402;-96.176;2022-07-29T04:34:11;97827.61;;;21.96;33.16
69689;BME280;56932;38.402;-96.176;2022-07-29T04:36:36;97828.17;;;21.96;33.35
69689;BME280;56932;38.402;-96.176;2022-07-29T04:39:02;97831.05;;;22.56;32.77
69689;BME280;56932;38.402;-96.176;2022-07-29T04:41:28;97830.94;;;22.13;33.16
69689;BME280;56932;38.402;-96.176;2022-07-29T04:43:53;97825.32;;;21.90;33.81
69689;BME280;56932;38.402;-96.176;2022-07-29T04:46:18;97830.14;;;22.00;33.58
69689;BME280;56932;38.402;-96.176;2022-07-29T04:48:45;97830.88;;;22.59;33.22
69689;BME280;56932;38.402;-96.176;2022-07-29T04:51:09;97826.38;;;22.88;32.98
69689;BME280;56932;38.402;-96.176;2022-07-29T04:53:34;97821.02;;;22.29;33.53
69689;BME280;56932;38.402;-96.176;2022-07-29T04:56:00;97823.01;;;22.54;33.62
69689;BME280;56932;38.402;-96.176;2022-07-29T04:58:26;97827.75;;;22.48;33.86
69689;BME280;56932;38.402;-96.176;2022-07-29T05:00:51;97833.69;;;22.21;34.30
69689;BME280;56932;38.402;-96.176;2022-07-29T05:03:16;97838.06;;;22.57;33.67
69689;BME280;56932;38.402;-96.176;2022-07-29T05:05:42;97835.97;;;22.57;34.00
69689;BME280;56932;38.402;-96.176;2022-07-29T05:08:07;97833.03;;;22.07;34.08
69689;BME280;56932;38.402;-96.176;2022-07-29T05:10:33;97837.35;;;22.40;34.12
69689;BME280;56932;38.402;-96.176;2022-07-29T05:12:58;97841.97;;;22.43;34.20
69689;BME280;56932;38.402;-96.176;2022-07-29T05:15:23;97844.54;;;22.74;34.25
69689;BME280;56932;38.402;-96.176;2022-07-29T05:17:49;97844.91;;;22.61;34.46
69689;BME280;56932;38.402;-96.176;2022-07-29T05:20:14;97841.71;;;22.63;33.90
69689;BME280;56932;38.402;-96.176;2022-07-29T05:22:40;97835.71;;;22.47;34.77
69689;BME280;56932;38.402;-96.176;2022-07-29T05:25:06;97831.65;;;22.39;34.75
69689;BME280;56932;38.402;-96.176;2022-07-29T05:27:30;97829.98;;;22.58;34.58
69689;BME280;56932;38.402;-96.176;2022-07-29T05:29:56;97833.94;;;22.53;34.69
69689;BME280;56932;38.402;-96.176;2022-07-29T05:32:21;97835.97;;;22.58;34.97
69689;BME280;56932;38.402;-96.176;2022-07-29T05:34:47;97835.39;;;22.71;34.87
69689;BME280;56932;38.402;-96.176;2022-07-29T05:37:12;97832.47;;;22.34;35.14
69689;BME280;56932;38.402;-96.176;2022-07-29T05:39:38;97832.65;;;23.08;34.27
69689;BME280;56932;38.402;-96.176;2022-07-29T05:42:04;97833.56;;;22.71;35.12
69689;BME280;56932;38.402;-96.176;2022-07-29T05:44:28;97837.63;;;22.67;35.28
69689;BME280;56932;38.402;-96.176;2022-07-29T05:46:54;97838.74;;;22.64;35.41
69689;BME280;56932;38.402;-96.176;2022-07-29T05:49:19;97839.43;;;22.25;35.64
69689;BME280;56932;38.402;-96.176;2022-07-29T05:51:45;97841.85;;;22.73;35.06
69689;BME280;56932;38.402;-96.176;2022-07-29T05:54:10;97842.93;;;22.36;35.32
69689;BME280;56932;38.402;-96.176;2022-07-29T05:56:36;97843.51;;;23.00;35.20
69689;BME280;56932;38.402;-96.176;2022-07-29T05:59:01;97844.59;;;23.17;34.99
69689;BME280;56932;38.402;-96.176;2022-07-29T06:01:26;97848.82;;;22.59;35.54
69689;BME280;56932;38.402;-96.176;2022-07-29T06:03:52;97852.15;;;22.39;35.46
69689;BME280;56932;38.402;-96.176;2022-07-29T06:06:17;97859.99;;;22.66;35.85
69689;BME280;56932;38.402;-96.176;2022-07-29T06:08:43;97862.83;;;22.22;35.86
69689;BME280;56932;38.402;-96.176;2022-07-29T06:11:08;97864.70;;;22.83;35.16
69689;BME280;56932;38.402;-96.176;2022-07-29T06:13:34;97864.58;;;22.45;35.69
69689;BME280;56932;38.402;-96.176;2022-07-29T06:15:59;97864.86;;;22.31;35.94
69689;BME280;56932;38.402;-96.176;2022-07-29T06:18:25;97864.92;;;22.65;35.94
69689;BME280;56932;38.402;-96.176;2022-07-29T06:20:50;97868.64;;;22.73;35.50
69689;BME280;56932;38.402;-96.176;2022-07-29T06:23:16;97873.97;;;22.41;36.04
69689;BME280;56932;38.402;-96.176;2022-07-29T06:25:41;97879.53;;;22.83;35.53
69689;BME280;56932;38.402;-96.176;2022-07-29T06:28:06;97881.60;;;22.74;35.75
69689;BME280;56932;38.402;-96.176;2022-07-29T06:30:32;97884.24;;;22.56;36.03
69689;BME280;56932;38.402;-96.176;2022-07-29T06:32:57;97880.30;;;22.49;36.52
69689;BME280;56932;38.402;-96.176;2022-07-29T06:35:23;97881.57;;;22.51;36.16
69689;BME280;56932;38.402;-96.176;2022-07-29T06:37:48;97882.34;;;23.08;35.81
69689;BME280;56932;38.402;-96.176;2022-07-29T06:40:14;97881.04;;;22.77;35.90
69689;BME280;56932;38.402;-96.176;2022-07-29T06:42:42;97882.16;;;22.70;36.10
69689;BME280;56932;38.402;-96.176;2022-07-29T06:45:05;97880.07;;;22.74;36.43
69689;BME280;56932;38.402;-96.176;2022-07-29T06:47:30;97880.60;;;22.83;36.37
69689;BME280;56932;38.402;-96.176;2022-07-29T06:49:56;97881.05;;;22.71;36.13
69689;BME280;56932;38.402;-96.176;2022-07-29T06:52:21;97885.92;;;23.00;35.86
69689;BME280;56932;38.402;-96.176;2022-07-29T06:54:47;97889.49;;;22.90;36.38
69689;BME280;56932;38.402;-96.176;2022-07-29T06:57:12;97896.93;;;23.36;35.46
69689;BME280;56932;38.402;-96.176;2022-07-29T06:59:37;97898.15;;;23.00;36.62
69689;BME280;56932;38.402;-96.176;2022-07-29T07:02:03;97901.06;;;22.69;36.44
69689;BME280;56932;38.402;-96.176;2022-07-29T07:04:28;97906.56;;;23.27;36.09
69689;BME280;56932;38.402;-96.176;2022-07-29T07:06:54;97905.15;;;22.90;36.91
69689;BME280;56932;38.402;-96.176;2022-07-29T07:09:19;97905.82;;;22.91;36.65
69689;BME280;56932;38.402;-96.176;2022-07-29T07:11:45;97905.37;;;22.88;36.69
69689;BME280;56932;38.402;-96.176;2022-07-29T07:14:10;97907.68;;;22.48;36.90
69689;BME280;56932;38.402;-96.176;2022-07-29T07:16:36;97918.03;;;22.75;36.60
69689;BME280;56932;38.402;-96.176;2022-07-29T07:19:01;97925.01;;;22.94;36.38
69689;BME280;56932;38.402;-96.176;2022-07-29T07:21:27;97928.81;;;23.09;36.55
69689;BME280;56932;38.402;-96.176;2022-07-29T07:23:52;97927.37;;;22.88;36.87
69689;BME280;56932;38.402;-96.176;2022-07-29T07:26:18;97927.45;;;22.97;36.47
69689;BME280;56932;38.402;-96.176;2022-07-29T07:28:43;97926.67;;;23.15;36.28
69689;BME280;56932;38.402;-96.176;2022-07-29T07:31:09;97926.03;;;22.66;37.34
69689;BME280;56932;38.402;-96.176;2022-07-29T07:33:34;97924.35;;;22.85;37.09
69689;BME280;56932;38.402;-96.176;2022-07-29T07:35:59;97929.93;;;23.04;37.22
69689;BME280;56932;38.402;-96.176;2022-07-29T07:38:25;97931.16;;;22.76;36.94
69689;BME280;56932;38.402;-96.176;2022-07-29T07:40:50;97930.57;;;23.05;36.96
69689;BME280;56932;38.402;-96.176;2022-07-29T07:43:16;97931.11;;;22.68;37.14
69689;BME280;56932;38.402;-96.176;2022-07-29T07:45:41;97936.06;;;23.05;37.09
69689;BME280;56932;38.402;-96.176;2022-07-29T07:48:07;97938.64;;;22.59;37.38
69689;BME280;56932;38.402;-96.176;2022-07-29T07:50:32;97937.81;;;22.89;37.36
69689;BME280;56932;38.402;-96.176;2022-07-29T07:52:58;97937.12;;;23.10;37.40
69689;BME280;56932;38.402;-96.176;2022-07-29T07:55:23;97933.42;;;22.85;37.06
69689;BME280;56932;38.402;-96.176;2022-07-29T07:57:49;97930.10;;;22.95;36.95
69689;BME280;56932;38.402;-96.176;2022-07-29T08:00:15;97927.94;;;23.12;36.78
69689;BME280;56932;38.402;-96.176;2022-07-29T08:02:40;97926.55;;;22.68;37.37
69689;BME280;56932;38.402;-96.176;2022-07-29T08:05:06;97928.05;;;22.73;37.37
69689;BME280;56932;38.402;-96.176;2022-07-29T08:07:30;97929.19;;;23.18;36.84
69689;BME280;56932;38.402;-96.176;2022-07-29T08:09:56;97928.71;;;23.05;37.69
69689;BME280;56932;38.402;-96.176;2022-07-29T08:12:21;97926.60;;;22.94;37.20
69689;BME280;56932;38.402;-96.176;2022-07-29T08:14:47;97927.20;;;22.76;37.46
69689;BME280;56932;38.402;-96.176;2022-07-29T08:17:12;97926.49;;;22.67;37.58
69689;BME280;56932;38.402;-96.176;2022-07-29T08:19:38;97915.53;;;22.50;37.87
69689;BME280;56932;38.402;-96.176;2022-07-29T08:22:04;97913.15;;;23.92;36.62
69689;BME280;56932;38.402;-96.176;2022-07-29T08:24:29;97912.87;;;23.14;36.99
69689;BME280;56932;38.402;-96.176;2022-07-29T08:26:54;97909.38;;;23.38;36.29
69689;BME280;56932;38.402;-96.176;2022-07-29T08:29:19;97906.24;;;23.34;36.79
69689;BME280;56932;38.402;-96.176;2022-07-29T08:31:45;97905.36;;;22.92;37.47
69689;BME280;56932;38.402;-96.176;2022-07-29T08:34:11;97909.03;;;22.88;37.91
69689;BME280;56932;38.402;-96.176;2022-07-29T08:36:36;97910.16;;;22.82;37.69
69689;BME280;56932;38.402;-96.176;2022-07-29T08:39:02;97912.09;;;22.94;37.92
69689;BME280;56932;38.402;-96.176;2022-07-29T08:41:27;97913.28;;;23.09;37.35
69689;BME280;56932;38.402;-96.176;2022-07-29T08:43:52;97911.28;;;23.07;37.38
69689;BME280;56932;38.402;-96.176;2022-07-29T08:46:19;97911.41;;;23.45;36.83
69689;BME280;56932;38.402;-96.176;2022-07-29T08:48:43;97904.63;;;23.08;37.79
69689;BME280;56932;38.402;-96.176;2022-07-29T08:51:13;97898.88;;;23.36;37.06
69689;BME280;56932;38.402;-96.176;2022-07-29T08:53:34;97891.06;;;22.59;38.16
69689;BME280;56932;38.402;-96.176;2022-07-29T08:56:00;97888.81;;;22.99;38.02
69689;BME280;56932;38.402;-96.176;2022-07-29T08:58:26;97887.07;;;22.89;38.20
69689;BME280;56932;38.402;-96.176;2022-07-29T09:00:52;97889.02;;;23.49;36.96
69689;BME280;56932;38.402;-96.176;2022-07-29T09:03:20;97887.91;;;23.19;37.42
69689;BME280;56932;38.402;-96.176;2022-07-29T09:05:42;97884.68;;;23.30;37.68
69689;BME280;56932;38.402;-96.176;2022-07-29T09:08:07;97886.08;;;23.14;38.25
69689;BME280;56932;38.402;-96.176;2022-07-29T09:10:33;97888.88;;;23.24;37.79
69689;BME280;56932;38.402;-96.176;2022-07-29T09:12:58;97892.88;;;23.06;37.66
69689;BME280;56932;38.402;-96.176;2022-07-29T09:15:23;97893.70;;;23.27;38.10
69689;BME280;56932;38.402;-96.176;2022-07-29T09:17:49;97891.30;;;22.61;38.37
69689;BME280;56932;38.402;-96.176;2022-07-29T09:20:16;97893.65;;;23.29;37.44
69689;BME280;56932;38.402;-96.176;2022-07-29T09:22:40;97896.74;;;23.06;38.10
69689;BME280;56932;38.402;-96.176;2022-07-29T09:25:06;97901.44;;;23.36;37.37
69689;BME280;56932;38.402;-96.176;2022-07-29T09:27:30;97898.96;;;22.74;38.20
69689;BME280;56932;38.402;-96.176;2022-07-29T09:29:57;97899.61;;;22.76;38.20
69689;BME280;56932;38.402;-96.176;2022-07-29T09:32:21;97897.42;;;22.64;38.42
69689;BME280;56932;38.402;-96.176;2022-07-29T09:34:47;97900.22;;;23.73;37.02
69689;BME280;56932;38.402;-96.176;2022-07-29T09:39:39;97898.15;;;22.07;37.33
69689;BME280;56932;38.402;-96.176;2022-07-29T09:42:05;97898.81;;;21.88;36.22
69689;BME280;56932;38.402;-96.176;2022-07-29T09:46:57;97890.88;;;21.48;35.31
69689;BME280;56932;38.402;-96.176;2022-07-29T09:49:20;97887.91;;;21.27;34.99
69689;BME280;56932;38.402;-96.176;2022-07-29T09:51:45;97888.15;;;21.09;34.15
69689;BME280;56932;38.402;-96.176;2022-07-29T09:56:40;97895.33;;;20.94;33.81
69689;BME280;56932;38.402;-96.176;2022-07-29T09:59:06;97894.29;;;21.02;33.23
69689;BME280;56932;38.402;-96.176;2022-07-29T10:01:28;97895.43;;;20.65;33.32
69689;BME280;56932;38.402;-96.176;2022-07-29T10:03:53;97893.83;;;21.40;31.95
69689;BME280;56932;38.402;-96.176;2022-07-29T10:06:18;97894.96;;;21.17;31.49
69689;BME280;56932;38.402;-96.176;2022-07-29T10:08:44;97897.60;;;20.75;31.86
69689;BME280;56932;38.402;-96.176;2022-07-29T10:11:11;97897.28;;;20.39;31.98
69689;BME280;56932;38.402;-96.176;2022-07-29T10:13:36;97893.79;;;21.27;30.87
69689;BME280;56932;38.402;-96.176;2022-07-29T10:16:01;97891.82;;;20.57;31.44
69689;BME280;56932;38.402;-96.176;2022-07-29T10:18:26;97891.23;;;20.07;31.71
69689;BME280;56932;38.402;-96.176;2022-07-29T10:20:51;97884.63;;;20.28;31.49
69689;BME280;56932;38.402;-96.176;2022-07-29T10:23:17;97881.92;;;20.10;31.65
69689;BME280;56932;38.402;-96.176;2022-07-29T10:25:44;97877.45;;;20.03;31.72
69689;BME280;56932;38.402;-96.176;2022-07-29T10:28:08;97873.95;;;20.67;31.13
69689;BME280;56932;38.402;-96.176;2022-07-29T10:30:34;97871.40;;;20.99;30.95
69689;BME280;56932;38.402;-96.176;2022-07-29T10:33:10;97871.37;;;21.05;30.85
69689;BME280;56932;38.402;-96.176;2022-07-29T10:35:37;97873.51;;;20.83;31.35
69689;BME280;56932;38.402;-96.176;2022-07-29T10:38:04;97875.13;;;21.35;31.07
69689;BME280;56932;38.402;-96.176;2022-07-29T10:40:25;97878.47;;;21.29;31.30
69689;BME280;56932;38.402;-96.176;2022-07-29T10:42:41;97880.72;;;21.59;31.38
69689;BME280;56932;38.402;-96.176;2022-07-29T10:45:07;97877.96;;;21.60;32.34
69689;BME280;56932;38.402;-96.176;2022-07-29T10:47:32;97880.94;;;21.55;32.77
69689;BME280;56932;38.402;-96.176;2022-07-29T10:49:59;97891.86;;;21.84;32.42
69689;BME280;56932;38.402;-96.176;2022-07-29T10:52:23;97894.99;;;22.36;32.10
69689;BME280;56932;38.402;-96.176;2022-07-29T10:54:50;97896.79;;;21.78;32.73
69689;BME280;56932;38.402;-96.176;2022-07-29T10:57:17;97893.43;;;21.40;33.52
69689;BME280;56932;38.402;-96.176;2022-07-29T10:59:40;97896.72;;;21.88;33.17
69689;BME280;56932;38.402;-96.176;2022-07-29T11:09:21;97905.18;;;22.44;33.06
69689;BME280;56932;38.402;-96.176;2022-07-29T11:11:46;97899.07;;;21.98;33.85
69689;BME280;56932;38.402;-96.176;2022-07-29T11:14:11;97899.14;;;22.27;33.88
69689;BME280;56932;38.402;-96.176;2022-07-29T11:21:36;97893.21;;;22.13;34.85
69689;BME280;56932;38.402;-96.176;2022-07-29T11:26:20;97901.20;;;21.97;35.35
69689;BME280;56932;38.402;-96.176;2022-07-29T11:28:51;97900.79;;;21.86;35.40
69689;BME280;56932;38.402;-96.176;2022-07-29T11:31:12;97906.80;;;21.44;35.78
69689;BME280;56932;38.402;-96.176;2022-07-29T11:33:36;97910.86;;;22.09;35.60
69689;BME280;56932;38.402;-96.176;2022-07-29T11:36:09;97914.27;;;21.61;35.84
69689;BME280;56932;38.402;-96.176;2022-07-29T11:38:27;97912.41;;;21.62;36.22
69689;BME280;56932;38.402;-96.176;2022-07-29T11:45:46;97920.01;;;22.16;36.09
69689;BME280;56932;38.402;-96.176;2022-07-29T11:48:17;97918.79;;;22.34;35.94
69689;BME280;56932;38.402;-96.176;2022-07-29T11:50:35;97915.69;;;22.35;35.73
69689;BME280;56932;38.402;-96.176;2022-07-29T11:53:00;97915.59;;;22.15;36.08
69689;BME280;56932;38.402;-96.176;2022-07-29T11:55:25;97922.20;;;22.18;36.15
69689;BME280;56932;38.402;-96.176;2022-07-29T11:57:51;97923.20;;;22.35;35.98
69689;BME280;56932;38.402;-96.176;2022-07-29T12:00:22;97926.75;;;21.89;36.65
69689;BME280;56932;38.402;-96.176;2022-07-29T12:02:42;97933.01;;;22.26;36.25
69689;BME280;56932;38.402;-96.176;2022-07-29T12:05:07;97939.75;;;22.10;36.56
69689;BME280;56932;38.402;-96.176;2022-07-29T12:07:33;97941.65;;;22.23;36.43
69689;BME280;56932;38.402;-96.176;2022-07-29T12:09:57;97947.88;;;22.32;36.40
69689;BME280;56932;38.402;-96.176;2022-07-29T12:12:23;97944.72;;;22.49;36.21
69689;BME280;56932;38.402;-96.176;2022-07-29T12:14:48;97947.97;;;22.72;35.92
69689;BME280;56932;38.402;-96.176;2022-07-29T12:19:42;97960.24;;;22.82;35.89
69689;BME280;56932;38.402;-96.176;2022-07-29T12:22:04;97968.48;;;22.77;35.69
69689;BME280;56932;38.402;-96.176;2022-07-29T12:26:57;97979.53;;;22.73;35.43
69689;BME280;56932;38.402;-96.176;2022-07-29T12:29:21;97980.81;;;23.10;35.38
69689;BME280;56932;38.402;-96.176;2022-07-29T12:31:50;97978.94;;;22.72;35.88
69689;BME280;56932;38.402;-96.176;2022-07-29T12:34:15;97983.95;;;22.93;35.34
69689;BME280;56932;38.402;-96.176;2022-07-29T12:36:38;97991.51;;;22.73;36.29
69689;BME280;56932;38.402;-96.176;2022-07-29T12:39:03;97991.75;;;22.69;35.77
69689;BME280;56932;38.402;-96.176;2022-07-29T12:41:29;97995.00;;;22.97;35.42
69689;BME280;56932;38.402;-96.176;2022-07-29T12:43:55;97998.58;;;22.63;35.92
69689;BME280;56932;38.402;-96.176;2022-07-29T12:46:20;98001.45;;;22.94;35.93
69689;BME280;56932;38.402;-96.176;2022-07-29T12:48:49;98007.76;;;23.09;35.36
69689;BME280;56932;38.402;-96.176;2022-07-29T12:51:11;98007.70;;;22.93;35.98
69689;BME280;56932;38.402;-96.176;2022-07-29T12:53:36;98016.10;;;23.06;35.43
69689;BME280;56932;38.402;-96.176;2022-07-29T12:56:02;98016.86;;;22.71;36.59
69689;BME280;56932;38.402;-96.176;2022-07-29T12:58:29;98023.71;;;22.65;36.10
69689;BME280;56932;38.402;-96.176;2022-07-29T13:01:00;98032.63;;;23.20;35.35
69689;BME280;56932;38.402;-96.176;2022-07-29T13:03:17;98035.80;;;22.67;36.06